Bow Flora — LAEX5 — position and weather

sailwx.info

Track history (hours):
 
Tides and Currents Weather Stations Pressure Air Temp Water Temp Dewpoint Dewpoint Depression Visibility Wind Speed Wind Dir Waves Ship Positions

Bow Flora

Last reported at 2017-Nov-18 14:18 UTC. Time now 2017-Nov-20 21:22 UTC.
Position S 25°31' W 046°56'.

Length 183 m; draft 7.4 m.

Type: Ship (hazmat cat B). MMSI: 259927000.

Date/timePositionNaut miles runAvg speedWind from/ knotsBaromVisibWave heightAir tempDewpointWater temp
2017-Nov-18 14:18S 25°31' W 046°56'413.4
2017-Nov-18 14:00S 25°27' W 046°54'713.6
2017-Nov-18 13:30S 25°21' W 046°51'713.7
2017-Nov-18 13:00S 25°15' W 046°49'713.6
2017-Nov-18 12:30S 25°08' W 046°46'713.6
2017-Nov-18 12:00S 25°02' W 046°43'713.9
2017-Nov-18 11:30S 24°56' W 046°40'714.2
2017-Nov-18 11:00S 24°49' W 046°37'714.3
2017-Nov-18 10:30S 24°42' W 046°34'714.3
2017-Nov-18 10:00S 24°36' W 046°31'714.1
2017-Nov-18 09:30S 24°29' W 046°28'714.1
2017-Nov-18 09:00S 24°22' W 046°27'714.1
2017-Nov-18 08:30S 24°15' W 046°25'714.0
2017-Nov-18 08:00S 24°08' W 046°23'510.4
2017-Nov-18 07:30S 24°03' W 046°22'5 9.4
2017-Nov-18 07:00S 23°60' W 046°19'  
2017-Nov-14 01:59S 23°59' W 046°17'4 0.1
2017-Nov-12 06:53S 23°55' W 046°20'  
2017-Nov-10 00:07S 23°58' W 046°18'1 8.7
2017-Nov-10 00:00S 23°58' W 046°17'4 7.4
2017-Nov-09 23:30S 24°01' W 046°20'510.0
2017-Nov-09 23:00S 24°06' W 046°22'4 8.8
2017-Nov-09 22:30S 24°09' W 046°20'1 2.3
2017-Nov-09 21:56S 24°10' W 046°18'0 0.0
2017-Nov-09 21:26S 24°10' W 046°18'0 0.0
2017-Nov-09 20:44S 24°10' W 046°18'0 0.0
2017-Nov-09 20:26S 24°10' W 046°18'0 0.0
2017-Nov-09 19:56S 24°10' W 046°18'0 0.0
2017-Nov-09 19:20S 24°10' W 046°18'0 0.0
2017-Nov-09 18:56S 24°10' W 046°18'0 0.0
2017-Nov-09 18:26S 24°10' W 046°18'0 0.0
2017-Nov-09 17:56S 24°10' W 046°18'0 0.0
2017-Nov-09 17:20S 24°10' W 046°18'0 0.0
2017-Nov-09 16:56S 24°10' W 046°18'0 0.0
2017-Nov-09 16:26S 24°10' W 046°18'0 0.0
2017-Nov-09 15:56S 24°10' W 046°18'0 0.0
2017-Nov-09 15:20S 24°10' W 046°18'0 0.0
2017-Nov-09 14:50S 24°10' W 046°18'0 0.0
2017-Nov-09 14:29S 24°10' W 046°18'0 0.0
2017-Nov-09 13:56S 24°10' W 046°18'0 0.0
2017-Nov-09 13:23S 24°10' W 046°18'0 0.0
2017-Nov-09 12:56S 24°10' W 046°18'0 0.0
2017-Nov-09 12:30S 24°10' W 046°18'0 0.0
2017-Nov-09 11:55S 24°10' W 046°18'0 0.0
2017-Nov-09 11:25S 24°10' W 046°18'0 0.0
2017-Nov-09 10:43S 24°10' W 046°18'0 0.1
2017-Nov-09 10:28S 24°10' W 046°18'0 0.0
2017-Nov-09 09:55S 24°10' W 046°18'0 0.0
2017-Nov-09 09:25S 24°10' W 046°18'0 0.0
2017-Nov-09 08:55S 24°10' W 046°18'0 0.0
2017-Nov-09 08:25S 24°10' W 046°18'0 0.0
2017-Nov-09 07:55S 24°10' W 046°18'0 0.0
2017-Nov-09 07:25S 24°10' W 046°18'0 0.0
2017-Nov-09 06:55S 24°10' W 046°18'0 0.0
2017-Nov-09 06:19S 24°10' W 046°18'0 0.0
2017-Nov-09 05:57S 24°10' W 046°18'0 0.0
2017-Nov-09 05:30S 24°10' W 046°18'0 0.0
2017-Nov-09 04:57S 24°10' W 046°18'0 0.0
2017-Nov-09 04:29S 24°10' W 046°18'0 0.0
2017-Nov-09 03:56S 24°10' W 046°18'0 0.0
2017-Nov-09 03:29S 24°10' W 046°18'0 0.0
2017-Nov-09 02:50S 24°10' W 046°18'0 0.0
2017-Nov-09 02:26S 24°10' W 046°18'0 0.0
2017-Nov-09 01:53S 24°10' W 046°18'0 0.0
2017-Nov-09 01:26S 24°10' W 046°18'0 0.0
2017-Nov-09 00:50S 24°10' W 046°18'0 0.7
2017-Nov-09 00:30S 24°10' W 046°18'3 6.8
2017-Nov-09 00:00S 24°11' W 046°15'612.2
2017-Nov-08 23:30S 24°13' W 046°08'  
Track history (hours):
 
Tides and Currents Weather Stations Pressure Air Temp Water Temp Dewpoint Dewpoint Depression Visibility Wind Speed Wind Dir Waves Ship Positions

Bow Flora

Last reported at 2017-Nov-18 14:18 UTC. Time now 2017-Nov-20 21:22 UTC.
Position S 25°31' W 046°56'.

Length 183 m; draft 7.4 m.

Type: Ship (hazmat cat B). MMSI: 259927000.

Date/timePositionNaut miles runAvg speedWind from/ knotsBaromVisibWave heightAir tempDewpointWater temp
2017-Nov-18 14:18S 25°31' W 046°56'413.4
2017-Nov-18 14:00S 25°27' W 046°54'713.6
2017-Nov-18 13:30S 25°21' W 046°51'713.7
2017-Nov-18 13:00S 25°15' W 046°49'713.6
2017-Nov-18 12:30S 25°08' W 046°46'713.6
2017-Nov-18 12:00S 25°02' W 046°43'713.9
2017-Nov-18 11:30S 24°56' W 046°40'714.2
2017-Nov-18 11:00S 24°49' W 046°37'714.3
2017-Nov-18 10:30S 24°42' W 046°34'714.3
2017-Nov-18 10:00S 24°36' W 046°31'714.1
2017-Nov-18 09:30S 24°29' W 046°28'714.1
2017-Nov-18 09:00S 24°22' W 046°27'714.1
2017-Nov-18 08:30S 24°15' W 046°25'714.0
2017-Nov-18 08:00S 24°08' W 046°23'510.4
2017-Nov-18 07:30S 24°03' W 046°22'5 9.4
2017-Nov-18 07:00S 23°60' W 046°19'  
2017-Nov-14 01:59S 23°59' W 046°17'4 0.1
2017-Nov-12 06:53S 23°55' W 046°20'  
2017-Nov-10 00:07S 23°58' W 046°18'1 8.7
2017-Nov-10 00:00S 23°58' W 046°17'4 7.4
2017-Nov-09 23:30S 24°01' W 046°20'510.0
2017-Nov-09 23:00S 24°06' W 046°22'4 8.8
2017-Nov-09 22:30S 24°09' W 046°20'1 2.3
2017-Nov-09 21:56S 24°10' W 046°18'0 0.0
2017-Nov-09 21:26S 24°10' W 046°18'0 0.0
2017-Nov-09 20:44S 24°10' W 046°18'0 0.0
2017-Nov-09 20:26S 24°10' W 046°18'0 0.0
2017-Nov-09 19:56S 24°10' W 046°18'0 0.0
2017-Nov-09 19:20S 24°10' W 046°18'0 0.0
2017-Nov-09 18:56S 24°10' W 046°18'0 0.0
2017-Nov-09 18:26S 24°10' W 046°18'0 0.0
2017-Nov-09 17:56S 24°10' W 046°18'0 0.0
2017-Nov-09 17:20S 24°10' W 046°18'0 0.0
2017-Nov-09 16:56S 24°10' W 046°18'0 0.0
2017-Nov-09 16:26S 24°10' W 046°18'0 0.0
2017-Nov-09 15:56S 24°10' W 046°18'0 0.0
2017-Nov-09 15:20S 24°10' W 046°18'0 0.0
2017-Nov-09 14:50S 24°10' W 046°18'0 0.0
2017-Nov-09 14:29S 24°10' W 046°18'0 0.0
2017-Nov-09 13:56S 24°10' W 046°18'0 0.0
2017-Nov-09 13:23S 24°10' W 046°18'0 0.0
2017-Nov-09 12:56S 24°10' W 046°18'0 0.0
2017-Nov-09 12:30S 24°10' W 046°18'0 0.0
2017-Nov-09 11:55S 24°10' W 046°18'0 0.0
2017-Nov-09 11:25S 24°10' W 046°18'0 0.0
2017-Nov-09 10:43S 24°10' W 046°18'0 0.1
2017-Nov-09 10:28S 24°10' W 046°18'0 0.0
2017-Nov-09 09:55S 24°10' W 046°18'0 0.0
2017-Nov-09 09:25S 24°10' W 046°18'0 0.0
2017-Nov-09 08:55S 24°10' W 046°18'0 0.0
2017-Nov-09 08:25S 24°10' W 046°18'0 0.0
2017-Nov-09 07:55S 24°10' W 046°18'0 0.0
2017-Nov-09 07:25S 24°10' W 046°18'0 0.0
2017-Nov-09 06:55S 24°10' W 046°18'0 0.0
2017-Nov-09 06:19S 24°10' W 046°18'0 0.0
2017-Nov-09 05:57S 24°10' W 046°18'0 0.0
2017-Nov-09 05:30S 24°10' W 046°18'0 0.0
2017-Nov-09 04:57S 24°10' W 046°18'0 0.0
2017-Nov-09 04:29S 24°10' W 046°18'0 0.0
2017-Nov-09 03:56S 24°10' W 046°18'0 0.0
2017-Nov-09 03:29S 24°10' W 046°18'0 0.0
2017-Nov-09 02:50S 24°10' W 046°18'0 0.0
2017-Nov-09 02:26S 24°10' W 046°18'0 0.0
2017-Nov-09 01:53S 24°10' W 046°18'0 0.0
2017-Nov-09 01:26S 24°10' W 046°18'0 0.0
2017-Nov-09 00:50S 24°10' W 046°18'0 0.7
2017-Nov-09 00:30S 24°10' W 046°18'3 6.8
2017-Nov-09 00:00S 24°11' W 046°15'612.2
2017-Nov-08 23:30S 24°13' W 046°08'  

Dump ship's entire track history